createdAt,value
2023-05-21T04:14:38.491Z,57.00
2023-05-21T04:15:38.844Z,56.00
2023-05-21T04:16:38.865Z,56.00
2023-05-21T04:17:38.913Z,56.00
2023-05-21T04:18:39.018Z,49.00
2023-05-21T04:19:39.186Z,51.00
2023-05-21T04:20:39.245Z,58.00
2023-05-21T04:21:39.451Z,62.00
2023-05-21T04:22:39.500Z,63.00
2023-05-21T04:23:39.652Z,65.00
2023-05-21T04:24:39.834Z,62.00
2023-05-21T04:25:39.922Z,71.00
2023-05-21T04:26:40.097Z,72.00
2023-05-21T04:27:40.223Z,70.00
2023-05-21T04:28:40.346Z,69.00
2023-05-21T04:29:40.515Z,71.00
2023-05-21T04:30:40.636Z,72.00
2023-05-21T04:31:40.800Z,122.00
2023-05-21T04:32:40.912Z,161.00
2023-05-21T04:33:41.047Z,168.00
2023-05-21T04:34:41.154Z,176.00
2023-05-21T04:35:41.270Z,182.00
2023-05-21T04:36:41.375Z,186.00
2023-05-21T04:37:41.502Z,195.00
2023-05-21T04:38:41.652Z,197.00
2023-05-21T04:39:41.762Z,192.00
2023-05-21T04:40:41.918Z,188.00
2023-05-21T04:41:42.015Z,191.00
2023-05-21T04:42:42.097Z,192.00
2023-05-21T04:43:42.240Z,189.00
2023-05-21T04:44:42.377Z,186.00
2023-05-21T04:45:42.519Z,179.00
2023-05-21T04:46:42.721Z,178.00
2023-05-21T04:47:42.831Z,172.00
2023-05-21T04:48:42.880Z,171.00
2023-05-21T04:49:43.008Z,158.00
2023-05-21T04:50:43.168Z,152.00
2023-05-21T04:51:43.246Z,152.00
2023-05-21T04:52:43.386Z,150.00
2023-05-21T04:53:43.494Z,152.00
2023-05-21T04:54:43.594Z,155.00
2023-05-21T04:55:43.724Z,160.00
2023-05-21T04:56:43.872Z,166.00
2023-05-21T04:57:44.002Z,170.00
2023-05-21T04:58:44.134Z,178.00
2023-05-21T04:59:44.309Z,184.00
2023-05-21T05:00:44.388Z,189.00
2023-05-21T05:01:44.505Z,195.00
2023-05-21T05:02:44.753Z,199.00
2023-05-21T05:03:44.772Z,203.00
2023-05-21T05:04:44.865Z,199.00
2023-05-21T05:05:44.959Z,215.00
2023-05-21T05:06:45.091Z,218.00
2023-05-21T05:07:45.274Z,229.00
2023-05-21T05:08:45.343Z,237.00
2023-05-21T05:09:45.493Z,231.00
2023-05-21T05:10:45.590Z,242.00
2023-05-21T05:11:45.727Z,240.00
2023-05-21T05:12:45.910Z,258.00
2023-05-21T05:13:45.986Z,266.00
2023-05-21T05:14:46.120Z,270.00
2023-05-21T05:15:47.538Z,263.00
2023-05-21T05:16:46.373Z,313.00
2023-05-21T05:17:46.474Z,300.00
2023-05-21T05:18:46.555Z,359.00
2023-05-21T05:19:46.698Z,349.00
2023-05-21T05:20:46.791Z,336.00
2023-05-21T05:21:46.897Z,356.00
2023-05-21T05:22:47.028Z,368.00
2023-05-21T05:23:47.115Z,372.00
2023-05-21T05:24:47.236Z,418.00
2023-05-21T05:25:47.344Z,415.00
2023-05-21T05:26:47.501Z,436.00
2023-05-21T05:27:47.615Z,430.00
2023-05-21T05:28:47.710Z,429.00
2023-05-21T05:29:47.814Z,402.00
2023-05-21T05:30:48.024Z,419.00
2023-05-21T05:31:48.106Z,395.00
2023-05-21T05:32:48.229Z,465.00
2023-05-21T05:33:48.304Z,397.00
2023-05-21T05:34:48.510Z,408.00
2023-05-21T05:35:48.542Z,449.00
2023-05-21T05:36:48.696Z,467.00
2023-05-21T05:37:48.803Z,441.00
2023-05-21T05:38:48.925Z,450.00
2023-05-21T05:39:49.088Z,476.00
2023-05-21T05:40:49.173Z,433.00
2023-05-21T05:41:49.309Z,426.00
2023-05-21T05:42:49.482Z,497.00
2023-05-21T05:43:49.562Z,458.00
2023-05-21T05:44:49.713Z,458.00
2023-05-21T05:45:49.889Z,437.00
2023-05-21T05:46:49.937Z,426.00
2023-05-21T05:47:50.121Z,436.00
2023-05-21T05:48:50.186Z,435.00
2023-05-21T05:49:50.309Z,422.00
2023-05-21T05:50:50.494Z,412.00
2023-05-21T05:51:50.610Z,406.00
2023-05-21T05:52:50.714Z,400.00
2023-05-21T05:53:50.881Z,389.00
2023-05-21T05:54:51.025Z,372.00
2023-05-21T05:55:51.128Z,367.00
2023-05-21T05:56:51.317Z,372.00
2023-05-21T05:57:51.428Z,376.00
2023-05-21T05:58:51.511Z,391.00
2023-05-21T05:59:51.660Z,394.00
2023-05-21T06:00:51.848Z,419.00
2023-05-21T06:01:51.980Z,424.00
2023-05-21T06:02:52.184Z,437.00
2023-05-21T06:03:52.300Z,444.00
2023-05-21T06:04:52.291Z,447.00
2023-05-21T06:05:52.480Z,457.00
2023-05-21T06:06:52.562Z,463.00
2023-05-21T06:07:52.716Z,469.00
2023-05-21T06:08:52.864Z,476.00
2023-05-21T06:09:53.060Z,478.00
2023-05-21T06:10:53.166Z,481.00
2023-05-21T06:11:53.313Z,472.00
2023-05-21T06:12:53.435Z,471.00
2023-05-21T06:13:54.517Z,458.00
2023-05-21T06:14:53.655Z,444.00
2023-05-21T06:15:53.862Z,442.00
2023-05-21T06:16:53.920Z,433.00
2023-05-21T06:17:54.194Z,440.00
2023-05-21T06:18:54.180Z,446.00
2023-05-21T06:19:54.352Z,456.00
2023-05-21T06:20:54.430Z,463.00
2023-05-21T06:21:54.556Z,471.00
2023-05-21T06:22:54.712Z,471.00
2023-05-21T06:23:54.819Z,471.00
2023-05-21T06:24:54.940Z,474.00
2023-05-21T06:25:55.099Z,475.00
2023-05-21T06:26:55.188Z,482.00
2023-05-21T06:27:55.311Z,490.00
2023-05-21T06:28:55.434Z,499.00
2023-05-21T06:29:55.518Z,508.00
2023-05-21T06:30:55.648Z,515.00
2023-05-21T06:31:55.805Z,519.00
2023-05-21T06:32:55.965Z,519.00
2023-05-21T06:33:56.077Z,525.00
2023-05-21T06:34:56.167Z,521.00
2023-05-21T06:35:56.338Z,519.00
2023-05-21T06:36:56.489Z,514.00
2023-05-21T06:37:56.619Z,513.00
2023-05-21T06:38:56.735Z,512.00
2023-05-21T06:39:56.904Z,505.00
2023-05-21T06:40:56.974Z,505.00
2023-05-21T06:41:57.108Z,496.00
2023-05-21T06:42:57.218Z,490.00
2023-05-21T06:43:57.375Z,488.00
2023-05-21T06:44:57.517Z,490.00
2023-05-21T06:45:57.738Z,493.00
2023-05-21T06:46:57.791Z,501.00
2023-05-21T06:47:57.991Z,510.00
2023-05-21T06:48:58.028Z,523.00
2023-05-21T06:49:58.169Z,536.00
2023-05-21T06:50:58.294Z,560.00
2023-05-21T06:51:58.430Z,575.00
2023-05-21T06:52:58.572Z,595.00
2023-05-21T06:53:58.691Z,603.00
2023-05-21T06:54:58.818Z,610.00
2023-05-21T06:55:58.973Z,617.00
2023-05-21T06:56:59.088Z,629.00
2023-05-21T06:57:59.183Z,636.00
2023-05-21T06:58:59.269Z,646.00
2023-05-21T06:59:59.401Z,658.00
2023-05-21T07:00:59.584Z,662.00
2023-05-21T07:01:59.693Z,668.00
2023-05-21T07:02:59.892Z,674.00
2023-05-21T07:03:59.890Z,672.00
2023-05-21T07:05:00.005Z,662.00
2023-05-21T07:06:00.159Z,652.00
2023-05-21T07:07:00.266Z,639.00
2023-05-21T07:08:00.418Z,623.00
2023-05-21T07:09:00.545Z,603.00
2023-05-21T07:10:00.654Z,592.00
2023-05-21T07:11:00.801Z,582.00
2023-05-21T07:12:00.961Z,574.00
2023-05-21T07:13:01.242Z,572.00
2023-05-21T07:15:16.774Z,599.00
2023-05-21T07:16:16.896Z,603.00
2023-05-21T07:17:17.017Z,616.00
2023-05-21T07:18:17.167Z,635.00
2023-05-21T07:19:17.388Z,646.00
2023-05-21T07:20:17.405Z,643.00
2023-05-21T07:21:17.522Z,639.00
2023-05-21T07:22:17.690Z,646.00
2023-05-21T07:23:17.778Z,639.00
2023-05-21T07:24:17.907Z,633.00
2023-05-21T07:25:18.017Z,633.00
2023-05-21T07:26:18.161Z,630.00
2023-05-21T07:28:19.417Z,629.00
2023-05-21T07:29:18.575Z,629.00
2023-05-21T07:30:18.662Z,629.00
2023-05-21T07:31:18.849Z,641.00
2023-05-21T07:32:18.917Z,641.00
2023-05-21T07:33:19.043Z,644.00
2023-05-21T07:34:19.181Z,652.00
2023-05-21T07:35:19.323Z,652.00
2023-05-21T07:36:19.424Z,653.00
2023-05-21T07:37:19.601Z,656.00
2023-05-21T07:38:19.663Z,662.00
2023-05-21T07:39:19.823Z,668.00
2023-05-21T07:40:19.901Z,686.00
2023-05-21T07:41:20.039Z,705.00
2023-05-21T07:42:20.117Z,726.00
2023-05-21T07:43:20.259Z,740.00
2023-05-21T07:44:20.381Z,759.00
2023-05-21T07:45:20.477Z,770.00
2023-05-21T07:46:20.643Z,787.00
2023-05-21T07:47:21.768Z,791.00
2023-05-21T07:48:20.863Z,807.00
2023-05-21T07:49:20.988Z,819.00
2023-05-21T07:50:21.125Z,829.00
2023-05-21T07:51:21.256Z,841.00
2023-05-21T07:52:21.393Z,857.00
2023-05-21T07:53:21.531Z,873.00
2023-05-21T07:54:21.617Z,882.00
2023-05-21T07:55:21.744Z,885.00
2023-05-21T07:56:21.877Z,911.00
2023-05-21T07:57:21.991Z,907.00
2023-05-21T07:58:22.127Z,913.00
2023-05-21T07:59:22.235Z,929.00
2023-05-21T08:00:22.357Z,942.00
2023-05-21T08:01:22.495Z,943.00
2023-05-21T08:02:22.747Z,947.00
2023-05-21T08:03:22.910Z,973.00
2023-05-21T08:04:23.135Z,975.00
2023-05-21T08:05:23.027Z,956.00
2023-05-21T08:06:23.151Z,956.00
2023-05-21T08:07:23.311Z,955.00
2023-05-21T08:08:23.420Z,955.00
2023-05-21T08:09:23.512Z,996.00
2023-05-21T08:10:23.670Z,1004.00
2023-05-21T08:11:23.787Z,990.00
2023-05-21T08:12:23.906Z,993.00
2023-05-21T08:13:24.041Z,1001.00
2023-05-21T08:14:24.129Z,1034.00
2023-05-21T08:15:24.258Z,1043.00
2023-05-21T08:16:24.408Z,1043.00
2023-05-21T08:17:24.570Z,1018.00
2023-05-21T08:18:24.653Z,974.00
2023-05-21T08:19:24.867Z,984.00
2023-05-21T08:20:24.885Z,993.00
2023-05-21T08:21:25.014Z,972.00
2023-05-21T08:22:25.130Z,973.00
2023-05-21T08:23:25.262Z,963.00
2023-05-21T08:24:25.412Z,1029.00
2023-05-21T08:25:25.543Z,1030.00
2023-05-21T08:26:25.673Z,1011.00
2023-05-21T08:27:25.835Z,987.00
2023-05-21T08:28:25.952Z,971.00
2023-05-21T08:29:26.116Z,935.00
2023-05-21T08:30:26.236Z,940.00
2023-05-21T08:31:26.430Z,895.00
2023-05-21T08:32:26.540Z,864.00
2023-05-21T08:33:26.636Z,845.00
2023-05-21T08:34:26.806Z,842.00
2023-05-21T08:35:26.908Z,835.00
2023-05-21T08:36:27.029Z,827.00
2023-05-21T08:37:27.189Z,825.00
2023-05-21T08:38:29.508Z,842.00
2023-05-21T08:39:27.438Z,879.00
2023-05-21T08:40:27.524Z,906.00
2023-05-21T08:41:27.642Z,947.00
2023-05-21T08:42:36.227Z,979.00
2023-05-21T08:43:28.909Z,999.00
2023-05-21T08:44:28.004Z,1010.00
2023-05-21T08:45:28.211Z,1028.00
2023-05-21T08:46:28.316Z,1020.00
2023-05-21T08:47:28.431Z,1006.00
2023-05-21T08:48:28.566Z,983.00
2023-05-21T08:49:28.710Z,960.00
2023-05-21T08:50:28.870Z,954.00
2023-05-21T08:51:28.962Z,965.00
2023-05-21T08:52:29.103Z,988.00
2023-05-21T08:53:29.454Z,988.00
2023-05-21T08:54:29.370Z,996.00
2023-05-21T08:55:29.528Z,1010.00
2023-05-21T08:56:29.605Z,1038.00
2023-05-21T08:57:29.750Z,1052.00
2023-05-21T08:58:29.872Z,1069.00
2023-05-21T08:59:30.002Z,1061.00
2023-05-21T09:00:30.115Z,1059.00
2023-05-21T09:01:30.314Z,1052.00
2023-05-21T09:02:30.485Z,1051.00
2023-05-21T09:03:30.664Z,1030.00
2023-05-21T09:04:30.921Z,1026.00
2023-05-21T09:05:30.829Z,1021.00
2023-05-21T09:06:30.937Z,1006.00
2023-05-21T09:07:31.091Z,997.00
2023-05-21T09:08:31.223Z,999.00
2023-05-21T09:09:31.330Z,989.00
2023-05-21T09:10:31.475Z,983.00
2023-05-21T09:11:31.622Z,984.00
2023-05-21T09:12:31.747Z,991.00
2023-05-21T09:13:31.893Z,999.00
2023-05-21T09:14:32.018Z,1001.00
2023-05-21T09:15:32.155Z,1014.00
2023-05-21T09:16:32.330Z,998.00
2023-05-21T09:17:32.468Z,1009.00
2023-05-21T09:18:32.571Z,1013.00
2023-05-21T09:19:32.793Z,1007.00
2023-05-21T09:20:32.876Z,1040.00
2023-05-21T09:21:33.012Z,1062.00
2023-05-21T09:22:33.136Z,1120.00
2023-05-21T09:23:33.244Z,1133.00
2023-05-21T09:24:36.083Z,1156.00
2023-05-21T09:25:33.491Z,1173.00
2023-05-21T09:26:33.623Z,1206.00
2023-05-21T09:27:33.741Z,1228.00
2023-05-21T09:28:33.864Z,1217.00
2023-05-21T09:29:34.109Z,1184.00
2023-05-21T09:30:35.951Z,1205.00
2023-05-21T09:31:34.265Z,1166.00
2023-05-21T09:32:34.369Z,1198.00
2023-05-21T09:33:34.492Z,1127.00
2023-05-21T09:34:34.614Z,1206.00
2023-05-21T09:35:36.158Z,1201.00
2023-05-21T09:36:34.843Z,1267.00
2023-05-21T09:37:34.994Z,1258.00
2023-05-21T09:38:35.105Z,1291.00
2023-05-21T09:39:35.307Z,1273.00
2023-05-21T09:40:35.674Z,1228.00
2023-05-21T09:41:35.477Z,1181.00
2023-05-21T09:42:35.610Z,1191.00
2023-05-21T09:43:35.744Z,1229.00
2023-05-21T09:44:35.898Z,1219.00
2023-05-21T09:45:36.266Z,1271.00
2023-05-21T09:46:36.142Z,1268.00
2023-05-21T09:47:36.306Z,1307.00
2023-05-21T09:48:36.415Z,1300.00
2023-05-21T09:49:36.512Z,1335.00
2023-05-21T09:50:36.856Z,1343.00
2023-05-21T09:51:36.805Z,1353.00
2023-05-21T09:52:36.939Z,1349.00
2023-05-21T09:53:37.122Z,1378.00
2023-05-21T09:54:37.193Z,1364.00
2023-05-21T09:55:37.349Z,1420.00
2023-05-21T09:56:37.409Z,1307.00
2023-05-21T09:57:37.550Z,1371.00
2023-05-21T09:58:37.681Z,1400.00
2023-05-21T09:59:37.801Z,1365.00
2023-05-21T10:00:38.042Z,1338.00
2023-05-21T10:01:38.115Z,1322.00
2023-05-21T10:02:38.241Z,1308.00
2023-05-21T10:03:38.380Z,1277.00
2023-05-21T10:04:38.657Z,1202.00
2023-05-21T10:05:38.660Z,1125.00
2023-05-21T10:06:38.799Z,1066.00
2023-05-21T10:07:38.947Z,1034.00
2023-05-21T10:08:39.077Z,1020.00
2023-05-21T10:09:39.202Z,1008.00
2023-05-21T10:10:39.305Z,1004.00
2023-05-21T10:11:39.462Z,983.00
2023-05-21T10:12:39.579Z,961.00
2023-05-21T10:13:39.710Z,932.00
2023-05-21T10:14:39.830Z,899.00
2023-05-21T10:15:39.959Z,866.00
2023-05-21T10:16:40.148Z,850.00
2023-05-21T10:17:40.187Z,842.00
2023-05-21T10:28:58.928Z,999.00
2023-05-21T10:29:59.020Z,1013.00
2023-05-21T10:30:59.148Z,1053.00
2023-05-21T10:31:59.327Z,1091.00
2023-05-21T10:32:59.536Z,1135.00
2023-05-21T10:33:59.557Z,1180.00
2023-05-21T10:35:01.521Z,1238.00
2023-05-21T10:35:59.798Z,1283.00
2023-05-21T10:36:59.892Z,1321.00
2023-05-21T10:37:59.994Z,1321.00
2023-05-21T10:39:00.224Z,1343.00
2023-05-21T10:40:00.270Z,1369.00
2023-05-21T10:41:00.371Z,1430.00
2023-05-21T10:42:00.530Z,1457.00
2023-05-21T10:43:00.609Z,1475.00
2023-05-21T10:44:00.727Z,1491.00
2023-05-21T10:45:00.915Z,1508.00
2023-05-21T10:46:01.033Z,1544.00
2023-05-21T10:47:01.085Z,1552.00
2023-05-21T10:48:01.227Z,1584.00
2023-05-21T10:49:01.341Z,1654.00
2023-05-21T10:50:01.484Z,1682.00
2023-05-21T10:51:01.614Z,1699.00
2023-05-21T10:52:01.740Z,1680.00
2023-05-21T10:53:01.851Z,1699.00
2023-05-21T10:54:01.971Z,1659.00
2023-05-21T10:55:02.106Z,1678.00
2023-05-21T10:56:02.222Z,1719.00
2023-05-21T10:57:02.367Z,1713.00
2023-05-21T10:58:02.491Z,1759.00
2023-05-21T10:59:02.626Z,1775.00
2023-05-21T11:00:02.765Z,1699.00
2023-05-21T11:01:02.874Z,1803.00
2023-05-21T11:02:02.994Z,1939.00
2023-05-21T11:03:03.245Z,2098.00
2023-05-21T11:04:03.261Z,2188.00
2023-05-21T11:05:03.395Z,2170.00
2023-05-21T11:06:03.526Z,2240.00
2023-05-21T11:07:03.654Z,2202.00
2023-05-21T11:08:03.780Z,2239.00
2023-05-21T11:09:03.934Z,2259.00
2023-05-21T11:10:04.059Z,2355.00
2023-05-21T11:11:04.189Z,2368.00
2023-05-21T11:12:04.315Z,2416.00
2023-05-21T11:13:04.455Z,2457.00
2023-05-21T11:14:04.580Z,2441.00
2023-05-21T11:15:04.692Z,2390.00
2023-05-21T11:16:04.809Z,2287.00
2023-05-21T11:17:05.080Z,2229.00
2023-05-21T11:18:05.072Z,2154.00
2023-05-21T11:19:05.216Z,2153.00
2023-05-21T11:20:05.265Z,2254.00
2023-05-21T11:21:05.399Z,2306.00
2023-05-21T11:22:05.534Z,2378.00
2023-05-21T11:23:05.637Z,2587.00
2023-05-21T11:24:05.812Z,2662.00
2023-05-21T11:25:05.917Z,2633.00
2023-05-21T11:26:06.058Z,2568.00
2023-05-21T11:27:06.173Z,2357.00
2023-05-21T11:28:06.322Z,2418.00
2023-05-21T11:29:06.462Z,2347.00
2023-05-21T11:30:06.601Z,2372.00
2023-05-21T11:31:06.761Z,2355.00
2023-05-21T11:32:06.865Z,2453.00
2023-05-21T11:33:07.021Z,2468.00
2023-05-21T11:34:07.124Z,2562.00
2023-05-21T11:35:07.259Z,2827.00
2023-05-21T11:36:07.360Z,2819.00
2023-05-21T11:37:07.469Z,2718.00
2023-05-21T11:38:07.588Z,2924.00
2023-05-21T11:39:07.704Z,3221.00
2023-05-21T11:40:07.875Z,3105.00
2023-05-21T11:41:07.951Z,2957.00
2023-05-21T11:42:08.062Z,2810.00
2023-05-21T11:43:08.178Z,2718.00
2023-05-21T11:44:08.311Z,2695.00
2023-05-21T11:45:08.431Z,2712.00
2023-05-21T11:46:08.598Z,2728.00
2023-05-21T11:47:08.707Z,2680.00
2023-05-21T11:48:08.869Z,2661.00
2023-05-21T11:49:08.977Z,2687.00
2023-05-21T11:50:09.079Z,2707.00
2023-05-21T11:51:09.205Z,2698.00
2023-05-21T11:52:09.350Z,2649.00
2023-05-21T11:53:09.456Z,2558.00
2023-05-21T11:54:09.578Z,2513.00
2023-05-21T11:55:09.678Z,2516.00
2023-05-21T11:56:09.882Z,2494.00
2023-05-21T11:57:09.987Z,2459.00
2023-05-21T11:58:10.072Z,2460.00
2023-05-21T11:59:10.199Z,2462.00
2023-05-21T12:00:10.374Z,2508.00
2023-05-21T12:01:10.504Z,2599.00
2023-05-21T12:02:11.328Z,2632.00
2023-05-21T12:03:10.752Z,2639.00
2023-05-21T12:04:10.871Z,2689.00
2023-05-21T12:05:13.063Z,2888.00
2023-05-21T12:06:11.192Z,2962.00
2023-05-21T12:07:11.199Z,2973.00
2023-05-21T12:08:11.307Z,3200.00
2023-05-21T12:09:11.448Z,3509.00
2023-05-21T12:10:11.602Z,3723.00
2023-05-21T12:11:11.721Z,3932.00
2023-05-21T12:12:11.848Z,4147.00
2023-05-21T12:13:11.957Z,4223.00
2023-05-21T12:14:12.145Z,4218.00
2023-05-21T12:15:12.224Z,4057.00
2023-05-21T12:16:12.389Z,4165.00
2023-05-21T12:17:12.491Z,4147.00
2023-05-21T12:18:12.704Z,4095.00
2023-05-21T12:19:12.820Z,4261.00
2023-05-21T12:20:12.981Z,4284.00
2023-05-21T12:21:13.138Z,4442.00
2023-05-21T12:22:13.270Z,4549.00
2023-05-21T12:23:13.463Z,4670.00
2023-05-21T12:24:13.595Z,4594.00
2023-05-21T12:25:13.733Z,4998.00
2023-05-21T12:26:13.890Z,5286.00
2023-05-21T12:27:14.025Z,5850.00
2023-05-21T12:28:14.109Z,6217.00
2023-05-21T12:29:14.255Z,6430.00
2023-05-21T12:30:14.422Z,9081.00
2023-05-21T12:31:14.589Z,5816.00
2023-05-21T12:32:14.736Z,6526.00
2023-05-21T12:33:14.846Z,6517.00
2023-05-21T12:34:15.001Z,9573.00
2023-05-21T12:35:15.170Z,10991.00
2023-05-21T12:36:15.268Z,8557.00
2023-05-21T12:37:15.430Z,8997.00
2023-05-21T12:38:15.558Z,11087.00
2023-05-21T12:39:15.719Z,9053.00
2023-05-21T12:40:15.859Z,10962.00
2023-05-21T12:41:15.970Z,10408.00
2023-05-21T12:42:16.127Z,15104.00
2023-05-21T12:43:16.236Z,12459.00
2023-05-21T12:44:16.343Z,10906.00
2023-05-21T12:45:16.490Z,12702.00
2023-05-21T12:46:16.665Z,12826.00
2023-05-21T12:47:16.734Z,14378.00
2023-05-21T12:48:16.935Z,13696.00
2023-05-21T12:49:17.032Z,9969.00
2023-05-21T12:50:17.145Z,8969.00
2023-05-21T12:51:17.313Z,8392.00
2023-05-21T12:52:17.466Z,10615.00
2023-05-21T12:53:17.570Z,12522.00
2023-05-21T12:54:17.744Z,11752.00
2023-05-21T12:55:17.850Z,12961.00
2023-05-21T12:56:17.960Z,13946.00
2023-05-21T12:57:18.110Z,16500.00
2023-05-21T12:58:18.214Z,19645.00
2023-05-21T12:59:18.382Z,22485.00
2023-05-21T13:00:18.503Z,21366.00
2023-05-21T13:01:18.687Z,23577.00
2023-05-21T13:02:18.767Z,19033.00
2023-05-21T13:03:19.009Z,23969.00
2023-05-21T13:04:19.154Z,20632.00
2023-05-21T13:05:19.225Z,24336.00
2023-05-21T13:06:19.331Z,26137.00
2023-05-21T13:07:19.476Z,23070.00
2023-05-21T13:08:19.613Z,19462.00
2023-05-21T13:09:19.689Z,22362.00
2023-05-21T13:10:19.834Z,22995.00
2023-05-21T13:11:19.956Z,31084.00
2023-05-21T13:12:20.058Z,27283.00
2023-05-21T13:13:20.161Z,25203.00
2023-05-21T13:14:20.269Z,25713.00
2023-05-21T13:15:20.384Z,27033.00
2023-05-21T13:16:20.546Z,25243.00
2023-05-21T13:17:20.629Z,26301.00
2023-05-21T13:18:20.804Z,25546.00
2023-05-21T13:19:20.904Z,24502.00
2023-05-21T13:20:21.123Z,21129.00
2023-05-21T13:21:21.109Z,21960.00
2023-05-21T13:22:21.269Z,14221.00
2023-05-21T13:23:21.384Z,7992.00
2023-05-21T13:24:21.501Z,7546.00
2023-05-21T13:25:21.776Z,7279.00
2023-05-21T13:26:21.706Z,15102.00
2023-05-21T13:27:21.835Z,9846.00
2023-05-21T13:28:21.952Z,15893.00
2023-05-21T13:29:22.114Z,12786.00
2023-05-21T13:30:22.224Z,10368.00
2023-05-21T13:31:22.405Z,9172.00
2023-05-21T13:32:22.573Z,7404.00
2023-05-21T13:33:22.926Z,7369.00
2023-05-21T13:34:22.719Z,7189.00
2023-05-21T13:35:22.865Z,8925.00
2023-05-21T13:36:22.974Z,14250.00
2023-05-21T13:37:23.111Z,15314.00
2023-05-21T13:38:23.260Z,15839.00
2023-05-21T13:39:23.409Z,14225.00
2023-05-21T13:40:23.573Z,18123.00
2023-05-21T13:41:23.705Z,12449.00
2023-05-21T13:42:23.797Z,15263.00
2023-05-21T13:43:23.917Z,11049.00
2023-05-21T13:44:24.065Z,10620.00
2023-05-21T13:45:24.169Z,10417.00
2023-05-21T13:46:24.340Z,9222.00
2023-05-21T13:47:24.471Z,9951.00
2023-05-21T13:48:24.557Z,9487.00
2023-05-21T13:49:24.793Z,8187.00
2023-05-21T13:50:24.854Z,7297.00
2023-05-21T13:51:38.077Z,6189.00
2023-05-21T13:52:26.085Z,5863.00
2023-05-21T13:53:25.235Z,4830.00
2023-05-21T13:54:25.352Z,4548.00
2023-05-21T13:55:25.448Z,4730.00
2023-05-21T13:56:25.571Z,3412.00
2023-05-21T13:57:25.671Z,3316.00
2023-05-21T13:58:25.853Z,2933.00
2023-05-21T13:59:25.965Z,3427.00
2023-05-21T14:00:26.069Z,3631.00
2023-05-21T14:01:26.214Z,5304.00
2023-05-21T14:02:26.517Z,5604.00
2023-05-21T14:03:26.450Z,3999.00
2023-05-21T14:04:26.613Z,4899.00
2023-05-21T14:05:26.720Z,3630.00
2023-05-21T14:06:26.855Z,2884.00
2023-05-21T14:07:26.962Z,2934.00
2023-05-21T14:08:27.050Z,3601.00
2023-05-21T14:09:27.300Z,3707.00
2023-05-21T14:10:27.361Z,2915.00
2023-05-21T14:11:27.488Z,2565.00
2023-05-21T14:12:27.580Z,2675.00
2023-05-21T14:13:27.701Z,2551.00
2023-05-21T14:14:27.821Z,2463.00
2023-05-21T14:15:27.905Z,2383.00
2023-05-21T14:16:28.163Z,2390.00
2023-05-21T14:17:28.211Z,2387.00
2023-05-21T14:18:28.317Z,2087.00
2023-05-21T14:19:28.524Z,2172.00
2023-05-21T14:20:28.549Z,2391.00
2023-05-21T14:21:28.694Z,2189.00
2023-05-21T14:22:28.771Z,1494.00
2023-05-21T14:23:28.939Z,1373.00
2023-05-21T14:24:29.054Z,1248.00
2023-05-21T14:25:29.175Z,1129.00
2023-05-21T14:26:29.310Z,1019.00
2023-05-21T14:27:29.400Z,934.00
2023-05-21T14:28:29.518Z,884.00
2023-05-21T14:29:29.598Z,897.00
2023-05-21T14:30:29.710Z,958.00
2023-05-21T14:31:29.931Z,1077.00
2023-05-21T14:32:30.140Z,1259.00
2023-05-21T14:33:30.109Z,1431.00
2023-05-21T14:34:30.217Z,1582.00
2023-05-21T14:35:31.309Z,1684.00
2023-05-21T14:36:30.459Z,1787.00
2023-05-21T14:37:30.639Z,1887.00
2023-05-21T14:38:30.746Z,1966.00
2023-05-21T14:39:30.857Z,1940.00
2023-05-21T14:40:31.019Z,1892.00
2023-05-21T14:41:31.137Z,1860.00
2023-05-21T14:42:32.020Z,1874.00
2023-05-21T14:43:31.399Z,1882.00
2023-05-21T14:44:32.466Z,1898.00
2023-05-21T14:45:31.585Z,1929.00
2023-05-21T14:46:31.783Z,1946.00
2023-05-21T14:47:31.871Z,1943.00
2023-05-21T14:48:31.941Z,1953.00
2023-05-21T14:49:32.072Z,1983.00
2023-05-21T14:50:32.160Z,2018.00
2023-05-21T14:51:32.323Z,2039.00
2023-05-21T14:52:32.416Z,2037.00
2023-05-21T14:53:32.580Z,2048.00
2023-05-21T14:54:32.707Z,1960.00
2023-05-21T14:55:33.741Z,1912.00
2023-05-21T14:56:32.938Z,1849.00
2023-05-21T14:57:33.023Z,1828.00
2023-05-21T14:58:33.201Z,1780.00
2023-05-21T14:59:33.348Z,1737.00
2023-05-21T15:00:33.429Z,1711.00
2023-05-21T15:01:33.682Z,1732.00
2023-05-21T15:02:33.803Z,1735.00
2023-05-21T15:03:34.008Z,1780.00
2023-05-21T15:04:33.928Z,1791.00
2023-05-21T15:05:34.142Z,1731.00
2023-05-21T15:06:34.247Z,1667.00
2023-05-21T15:07:34.385Z,1616.00
2023-05-21T15:08:34.531Z,1527.00
2023-05-21T15:09:34.687Z,1487.00
2023-05-21T15:10:34.829Z,1457.00
2023-05-21T15:11:34.925Z,1432.00
2023-05-21T15:12:35.046Z,1437.00
2023-05-21T15:13:35.178Z,1433.00
2023-05-21T15:14:35.325Z,1376.00
2023-05-21T15:15:36.016Z,1362.00
2023-05-21T15:16:35.644Z,1348.00
2023-05-21T15:17:35.726Z,1327.00
2023-05-21T15:18:35.809Z,1292.00
2023-05-21T15:19:36.097Z,1271.00
2023-05-21T15:20:36.087Z,1241.00
2023-05-21T15:21:36.200Z,1206.00
2023-05-21T15:22:36.348Z,1182.00
2023-05-21T15:23:36.468Z,1156.00
2023-05-21T15:24:36.604Z,1141.00
2023-05-21T15:25:37.014Z,1134.00
2023-05-21T15:26:36.890Z,1117.00
2023-05-21T15:27:37.081Z,1104.00
2023-05-21T15:28:37.173Z,1100.00
2023-05-21T15:29:37.411Z,1096.00
2023-05-21T15:30:37.507Z,1089.00
2023-05-21T15:31:37.676Z,1068.00
2023-05-21T15:32:37.856Z,1054.00
2023-05-21T15:33:37.968Z,1036.00
2023-05-21T15:34:38.151Z,1026.00
2023-05-21T15:35:38.774Z,1022.00
2023-05-21T15:36:38.399Z,1012.00
2023-05-21T15:37:38.533Z,1001.00
2023-05-21T15:38:38.678Z,1008.00
2023-05-21T15:39:38.770Z,1015.00
2023-05-21T15:40:38.892Z,1019.00
2023-05-21T15:41:39.022Z,1023.00
2023-05-21T15:42:39.171Z,999.00
2023-05-21T15:43:39.292Z,976.00
2023-05-21T15:44:39.417Z,958.00
2023-05-21T15:45:39.782Z,937.00
2023-05-21T15:46:39.763Z,907.00
2023-05-21T15:47:42.486Z,883.00
2023-05-21T15:48:40.007Z,857.00
2023-05-21T15:49:40.121Z,836.00
2023-05-21T15:50:40.311Z,814.00
2023-05-21T15:51:40.445Z,804.00
2023-05-21T15:52:40.544Z,809.00
2023-05-21T15:53:40.658Z,823.00
2023-05-21T15:54:40.804Z,831.00
2023-05-21T15:55:40.915Z,830.00
2023-05-21T15:56:41.008Z,831.00
2023-05-21T15:57:41.184Z,837.00
2023-05-21T15:58:41.307Z,851.00
2023-05-21T15:59:41.396Z,861.00
2023-05-21T16:00:41.528Z,874.00
2023-05-21T16:01:41.628Z,887.00
2023-05-21T16:02:41.779Z,892.00
2023-05-21T16:03:41.942Z,886.00
2023-05-21T16:04:42.024Z,870.00
2023-05-21T16:05:42.152Z,842.00
2023-05-21T16:06:42.299Z,796.00
2023-05-21T16:07:42.404Z,750.00
2023-05-21T16:08:42.537Z,729.00
2023-05-21T16:09:42.665Z,712.00
2023-05-21T16:10:42.816Z,694.00
2023-05-21T16:11:42.889Z,673.00
2023-05-21T16:12:42.999Z,669.00
2023-05-21T16:13:43.124Z,664.00
2023-05-21T16:14:43.256Z,660.00
2023-05-21T16:15:43.447Z,663.00
2023-05-21T16:16:43.594Z,657.00
2023-05-21T16:28:08.001Z,537.00
2023-05-21T16:29:08.068Z,532.00
2023-05-21T16:30:08.202Z,522.00
2023-05-21T16:31:08.345Z,516.00
2023-05-21T16:32:08.489Z,507.00
2023-05-21T16:33:08.722Z,504.00
2023-05-21T16:34:08.811Z,496.00
2023-05-21T16:35:09.883Z,498.00
2023-05-21T16:36:09.092Z,496.00
2023-05-21T16:37:09.305Z,501.00
2023-05-21T16:38:09.345Z,510.00
2023-05-21T16:39:09.469Z,527.00
2023-05-21T16:40:09.611Z,531.00
2023-05-21T16:41:09.750Z,539.00
2023-05-21T16:42:09.878Z,548.00
2023-05-21T16:43:10.007Z,558.00
2023-05-21T16:44:10.166Z,563.00
2023-05-21T16:45:11.234Z,579.00
2023-05-21T16:46:10.489Z,596.00
2023-05-21T16:47:10.633Z,613.00
2023-05-21T16:48:10.756Z,621.00
2023-05-21T16:49:10.869Z,624.00
2023-05-21T16:50:10.996Z,633.00
2023-05-21T16:51:11.134Z,641.00
2023-05-21T16:52:11.277Z,650.00
2023-05-21T16:53:11.391Z,664.00
2023-05-21T16:54:11.488Z,671.00